HSV - Huntsville Intl Carl T Jones Fld

Pirep is a free, collaborative database of all public and private airports located within the United States. All pilots are welcome to contribute, edit, and improve any airport they have local knowledge about, no registration required.
Are you familiar with this airport? Help out other pilots by adding your local knowledge.
Uploaded photos will be licensed under a CC BY-SA 4.0 license. Please only upload photos you have the rights to use.
Tags
Public
Undocu­mented
METAR / TAF
Edit Tags
Food
Camping
Lodging
Car Rental
Bicycles
Swimming
Golfing
Fishing
Hot Springs
Museum
Flying Clubs
Airpark
Upcoming Events
No upcoming events. Is anything happening here soon?
*
*
*

Where exactly on/near the airport is this event taking place?

Is there a webpage with more information for this event?

Who should be contacted for more information?

What is this event all about?

Repeat every
Description
Transient Parking
Fuel Location
Landing & Tie-down Fees
Crew Car Availability
Flying Clubs
WiFi Access
Airport Statistics
Location: Huntsville, AL
Elevation: 628ft
Sectional: Atlanta
Activation date: May 1964
Fuel: 100LL, A (prices)
Runway 18R/36L: 12,600ft
Runway 18L/36R: 10,001ft
Access: Open to the public
Current Weather — VFR
  • Weather data is strictly informational and not for flight planning purposes.
  • METAR
    2024-05-24 19:53:00 CDT
    Ceiling Wind Temperature Dewpoint Weather Visbility
    Sky clear 120° @ 4kt 77°F 71°F N/A 10SM
    Clouds: Few @ 9,500ft, Few @ 19,000ft
    Raw: KHSV 250053Z COR 12004KT 10SM FEW095 FEW190 25/22 A2985 RMK SLP101 T02500217
  • TAF
    2024-05-24 19:00:00 CDT – 2024-05-24 22:00:00 CDT
    Ceiling Wind Weather Visbility
    Sky clear 170° @ 6kt N/A 6SM
    Clouds: Few @ 6,000ft, Scattered @ 15,000ft, Scattered @ 25,000ft
    Raw: KHSV 242353Z 2500/2524 17006KT P6SM FEW060 SCT150 SCT250 FM250300 17003KT P6SM FEW040 BKN250 PROB30 2510/2515 3SM TSRA BR BKN025CB FM251600 19009KT P6SM SCT035 SCT080 SCT250
  • TAF
    2024-05-24 22:00:00 CDT – 2024-05-25 11:00:00 CDT
    Ceiling Wind Weather Visbility
    25,000ft 170° @ 3kt N/A 6SM
    Clouds: Few @ 4,000ft, Broken @ 25,000ft
    Raw: KHSV 242353Z 2500/2524 17006KT P6SM FEW060 SCT150 SCT250 FM250300 17003KT P6SM FEW040 BKN250 PROB30 2510/2515 3SM TSRA BR BKN025CB FM251600 19009KT P6SM SCT035 SCT080 SCT250
  • TAF
    2024-05-25 05:00:00 CDT – 2024-05-25 10:00:00 CDT
    Ceiling Wind Weather Visbility
    2,500ft ° @ kt Thunderstorm rain, mist 3SM
    Clouds: Broken @ 2,500ft
    Raw: KHSV 242353Z 2500/2524 17006KT P6SM FEW060 SCT150 SCT250 FM250300 17003KT P6SM FEW040 BKN250 PROB30 2510/2515 3SM TSRA BR BKN025CB FM251600 19009KT P6SM SCT035 SCT080 SCT250
  • TAF
    2024-05-25 11:00:00 CDT – 2024-05-25 19:00:00 CDT
    Ceiling Wind Weather Visbility
    Sky clear 190° @ 9kt N/A 6SM
    Clouds: Scattered @ 3,500ft, Scattered @ 8,000ft, Scattered @ 25,000ft
    Raw: KHSV 242353Z 2500/2524 17006KT P6SM FEW060 SCT150 SCT250 FM250300 17003KT P6SM FEW040 BKN250 PROB30 2510/2515 3SM TSRA BR BKN025CB FM251600 19009KT P6SM SCT035 SCT080 SCT250
Click/tap to add an annotation marker to the map
Airport Webcams
No webcams added yet.
Direct links to live image URLs will be displayed inline on this page. URLs to separate webpages will be linked to.
URL:
Direct links to live image URLs will be displayed inline on this page. URLs to separate webpages will be linked to.
URL:
Remarks
  • Ctc hsv arff on ctaf or phone 256-461-1115 for emerg when atct clsd.
  • Intxn of twy j and service rd is uncontrolled.
  • Line up and wait na.
  • For cd when twr clsd, if una to ctc on fss freq, ctc memphis artcc at 901-368-8453/8449.
  • Flt notification svc (adcus) avbl.
Comments
Leave a comment What was your experience like at this airport?